Muir Army Air Field (Fort Indiantown Gap) Airport Fort Indiantown Gap(Annville) US
ICAO: KMUI
IATA: MUI
Category: Medium
Scheduled Services: No

Elevation: 488 ft
TransAlt. 18000 ft.

Airport Communications:
HARRISBURG APP/DEP:118.25
CTAF:126.2
GND:121.625
FLT FLW:40.9
ARNG OPS:49.95
TWR:126.2

KMUI Zoom In..

Runways:

(A) RW 07 length 3978 ft width 98 ft
---- / hdg 70

(B) RW 25 length 3978 ft width 98 ft
---- / hdg 250

Location; KMUI
Day. 29 / Time. 01.56 Zulu
* Altimeter: 30.01
* Temperature: 23° c. 73.4°f.
* Wind from: 000° Speed 00 kn.
Dewpoint: 21° c.
Visibility: 10 Statute Miles.
Clouds: Overcast 1400 ft.

KMUI 290156Z AUTO 00000KT 10SM OVC014 23/21 A3001 RMK AO2 SLP163 T02320213


Wind - Calm.

 
 
jpsmedia worldairports.se 2020   terms of use